Weather at Columbia Airport

Public forecast

Using degrees Fahrenheit for public forecast. Weather courtesy of forecast.io.

Current aviation weather report (METAR) for Columbia Airport

Retrieved UTC (0 seconds ago):

Closest aviation forecast (TAF) to Columbia Airport

Closest forecast is Modesto City Co-Harry Sham Field, 35.3 nm (65.3 km) SW. Retrieved 2020/10/30 12:25 UTC (4 hours ago):

TAF KMOD 301120Z 3012/3112 VRB04KT P6SM SKC TEMPO 3014/3018 4SM HZ